sensor_id;sensor_type;location;lat;lon;timestamp;temperature;humidity
13686;DHT22;6915;48.296;8.874;2023-01-29T00:00:12;-1.20;99.90
13686;DHT22;6915;48.296;8.874;2023-01-29T00:02:41;-1.20;99.90
13686;DHT22;6915;48.296;8.874;2023-01-29T00:05:10;-1.10;99.90
13686;DHT22;6915;48.296;8.874;2023-01-29T00:07:39;-1.20;99.90
13686;DHT22;6915;48.296;8.874;2023-01-29T00:10:10;-1.20;99.90
13686;DHT22;6915;48.296;8.874;2023-01-29T00:12:39;-1.20;99.90
13686;DHT22;6915;48.296;8.874;2023-01-29T00:15:10;-1.20;99.90
13686;DHT22;6915;48.296;8.874;2023-01-29T00:17:39;-1.10;99.90
13686;DHT22;6915;48.296;8.874;2023-01-29T00:20:09;-1.20;99.90
13686;DHT22;6915;48.296;8.874;2023-01-29T00:22:38;-1.20;99.90
13686;DHT22;6915;48.296;8.874;2023-01-29T00:25:06;-1.20;99.90
13686;DHT22;6915;48.296;8.874;2023-01-29T00:27:35;-1.20;99.90
13686;DHT22;6915;48.296;8.874;2023-01-29T00:30:04;-1.20;99.90
13686;DHT22;6915;48.296;8.874;2023-01-29T00:32:41;-1.20;99.90
13686;DHT22;6915;48.296;8.874;2023-01-29T00:35:10;-1.20;99.90
13686;DHT22;6915;48.296;8.874;2023-01-29T00:37:39;-1.30;99.90
13686;DHT22;6915;48.296;8.874;2023-01-29T00:40:07;-1.30;99.90
13686;DHT22;6915;48.296;8.874;2023-01-29T00:42:36;-1.30;99.90
13686;DHT22;6915;48.296;8.874;2023-01-29T00:45:29;-1.30;99.90
13686;DHT22;6915;48.296;8.874;2023-01-29T00:47:59;-1.30;99.90
13686;DHT22;6915;48.296;8.874;2023-01-29T00:50:29;-1.30;99.90
13686;DHT22;6915;48.296;8.874;2023-01-29T00:52:57;-1.30;99.90
13686;DHT22;6915;48.296;8.874;2023-01-29T00:55:26;-1.30;99.90
13686;DHT22;6915;48.296;8.874;2023-01-29T00:57:55;-1.30;99.90
13686;DHT22;6915;48.296;8.874;2023-01-29T01:00:24;-1.30;99.90
13686;DHT22;6915;48.296;8.874;2023-01-29T01:02:52;-1.30;99.90
13686;DHT22;6915;48.296;8.874;2023-01-29T01:05:33;-1.30;99.90
13686;DHT22;6915;48.296;8.874;2023-01-29T01:08:03;-1.30;99.90
13686;DHT22;6915;48.296;8.874;2023-01-29T01:10:58;-1.30;99.90
13686;DHT22;6915;48.296;8.874;2023-01-29T01:13:28;-1.40;99.90
13686;DHT22;6915;48.296;8.874;2023-01-29T01:15:58;-1.40;99.90
13686;DHT22;6915;48.296;8.874;2023-01-29T01:18:30;-1.40;99.90
13686;DHT22;6915;48.296;8.874;2023-01-29T01:21:00;-1.30;99.90
13686;DHT22;6915;48.296;8.874;2023-01-29T01:23:29;-1.30;99.90
13686;DHT22;6915;48.296;8.874;2023-01-29T01:25:57;-1.30;99.90
13686;DHT22;6915;48.296;8.874;2023-01-29T01:28:26;-1.30;99.90
13686;DHT22;6915;48.296;8.874;2023-01-29T01:30:55;-1.30;99.90
13686;DHT22;6915;48.296;8.874;2023-01-29T01:33:24;-1.30;99.90
13686;DHT22;6915;48.296;8.874;2023-01-29T01:35:53;-1.30;99.90
13686;DHT22;6915;48.296;8.874;2023-01-29T01:38:23;-1.30;99.90
13686;DHT22;6915;48.296;8.874;2023-01-29T01:40:52;-1.30;99.90
13686;DHT22;6915;48.296;8.874;2023-01-29T01:43:21;-1.30;99.90
13686;DHT22;6915;48.296;8.874;2023-01-29T01:45:49;-1.30;99.90
13686;DHT22;6915;48.296;8.874;2023-01-29T01:48:20;-1.30;99.90
13686;DHT22;6915;48.296;8.874;2023-01-29T01:50:52;-1.30;99.90
13686;DHT22;6915;48.296;8.874;2023-01-29T01:53:24;-1.30;99.90
13686;DHT22;6915;48.296;8.874;2023-01-29T01:55:58;-1.30;99.90
13686;DHT22;6915;48.296;8.874;2023-01-29T01:58:32;-1.20;99.90
13686;DHT22;6915;48.296;8.874;2023-01-29T02:01:02;-1.30;99.90
13686;DHT22;6915;48.296;8.874;2023-01-29T02:03:34;-1.30;99.90
13686;DHT22;6915;48.296;8.874;2023-01-29T02:06:22;-1.30;99.90
13686;DHT22;6915;48.296;8.874;2023-01-29T02:09:12;-1.30;99.90
13686;DHT22;6915;48.296;8.874;2023-01-29T02:12:02;-1.40;99.90
13686;DHT22;6915;48.296;8.874;2023-01-29T02:14:31;-1.40;99.90
13686;DHT22;6915;48.296;8.874;2023-01-29T02:17:01;-1.30;99.90
13686;DHT22;6915;48.296;8.874;2023-01-29T02:19:44;-1.30;99.90
13686;DHT22;6915;48.296;8.874;2023-01-29T02:22:41;-1.30;99.90
13686;DHT22;6915;48.296;8.874;2023-01-29T02:25:28;-1.30;99.90
13686;DHT22;6915;48.296;8.874;2023-01-29T02:28:35;-1.30;99.90
13686;DHT22;6915;48.296;8.874;2023-01-29T02:31:11;-1.30;99.90
13686;DHT22;6915;48.296;8.874;2023-01-29T02:33:50;-1.30;99.90
13686;DHT22;6915;48.296;8.874;2023-01-29T02:36:30;-1.30;99.90
13686;DHT22;6915;48.296;8.874;2023-01-29T02:39:03;-1.30;99.90
13686;DHT22;6915;48.296;8.874;2023-01-29T02:41:39;-1.40;99.90
13686;DHT22;6915;48.296;8.874;2023-01-29T02:44:16;-1.30;99.90
13686;DHT22;6915;48.296;8.874;2023-01-29T02:46:55;-1.30;99.90
13686;DHT22;6915;48.296;8.874;2023-01-29T02:49:29;-1.30;99.90
13686;DHT22;6915;48.296;8.874;2023-01-29T02:52:01;-1.40;99.90
13686;DHT22;6915;48.296;8.874;2023-01-29T02:54:37;-1.40;99.90
13686;DHT22;6915;48.296;8.874;2023-01-29T02:57:15;-1.40;99.90
13686;DHT22;6915;48.296;8.874;2023-01-29T02:59:51;-1.40;99.90
13686;DHT22;6915;48.296;8.874;2023-01-29T03:02:24;-1.40;99.90
13686;DHT22;6915;48.296;8.874;2023-01-29T03:05:00;-1.40;99.90
13686;DHT22;6915;48.296;8.874;2023-01-29T03:07:37;-1.40;99.90
13686;DHT22;6915;48.296;8.874;2023-01-29T03:10:17;-1.40;99.90
13686;DHT22;6915;48.296;8.874;2023-01-29T03:12:52;-1.40;99.90
13686;DHT22;6915;48.296;8.874;2023-01-29T03:15:30;-1.40;99.90
13686;DHT22;6915;48.296;8.874;2023-01-29T03:18:08;-1.40;99.90
13686;DHT22;6915;48.296;8.874;2023-01-29T03:20:43;-1.40;99.90
13686;DHT22;6915;48.296;8.874;2023-01-29T03:23:18;-1.40;99.90
13686;DHT22;6915;48.296;8.874;2023-01-29T03:25:55;-1.40;99.90
13686;DHT22;6915;48.296;8.874;2023-01-29T03:28:44;-1.40;99.90
13686;DHT22;6915;48.296;8.874;2023-01-29T03:31:33;-1.40;99.90
13686;DHT22;6915;48.296;8.874;2023-01-29T03:34:21;-1.40;99.90
13686;DHT22;6915;48.296;8.874;2023-01-29T03:36:58;-1.40;99.90
13686;DHT22;6915;48.296;8.874;2023-01-29T03:39:30;-1.20;99.90
13686;DHT22;6915;48.296;8.874;2023-01-29T03:41:59;-1.40;99.90
13686;DHT22;6915;48.296;8.874;2023-01-29T03:44:36;-1.40;99.90
13686;DHT22;6915;48.296;8.874;2023-01-29T03:47:14;-1.40;99.90
13686;DHT22;6915;48.296;8.874;2023-01-29T03:49:53;-1.40;99.90
13686;DHT22;6915;48.296;8.874;2023-01-29T03:52:27;-1.50;99.90
13686;DHT22;6915;48.296;8.874;2023-01-29T03:55:05;-1.40;99.90
13686;DHT22;6915;48.296;8.874;2023-01-29T03:57:41;-1.40;99.90
13686;DHT22;6915;48.296;8.874;2023-01-29T04:00:18;-1.50;99.90
13686;DHT22;6915;48.296;8.874;2023-01-29T04:02:54;-1.40;99.90
13686;DHT22;6915;48.296;8.874;2023-01-29T04:05:27;-1.20;99.90
13686;DHT22;6915;48.296;8.874;2023-01-29T04:08:01;-1.40;99.90
13686;DHT22;6915;48.296;8.874;2023-01-29T04:10:33;-1.40;99.90
13686;DHT22;6915;48.296;8.874;2023-01-29T04:13:05;-1.40;99.90
13686;DHT22;6915;48.296;8.874;2023-01-29T04:15:41;-1.40;99.90
13686;DHT22;6915;48.296;8.874;2023-01-29T04:18:13;-1.30;99.90
13686;DHT22;6915;48.296;8.874;2023-01-29T04:20:42;-1.40;99.90
13686;DHT22;6915;48.296;8.874;2023-01-29T04:23:18;-1.40;99.90
13686;DHT22;6915;48.296;8.874;2023-01-29T04:25:58;-1.40;99.90
13686;DHT22;6915;48.296;8.874;2023-01-29T04:28:43;-1.40;99.90
13686;DHT22;6915;48.296;8.874;2023-01-29T04:31:15;-1.40;99.90
13686;DHT22;6915;48.296;8.874;2023-01-29T04:33:49;-1.50;99.90
13686;DHT22;6915;48.296;8.874;2023-01-29T04:36:36;-1.50;99.90
13686;DHT22;6915;48.296;8.874;2023-01-29T04:39:09;-1.50;99.90
13686;DHT22;6915;48.296;8.874;2023-01-29T04:41:49;-1.50;99.90
13686;DHT22;6915;48.296;8.874;2023-01-29T04:44:22;-1.40;99.90
13686;DHT22;6915;48.296;8.874;2023-01-29T04:47:00;-1.50;99.90
13686;DHT22;6915;48.296;8.874;2023-01-29T04:49:38;-1.40;99.90
13686;DHT22;6915;48.296;8.874;2023-01-29T04:52:14;-1.60;99.90
13686;DHT22;6915;48.296;8.874;2023-01-29T08:24:07;-1.00;99.90
13686;DHT22;6915;48.296;8.874;2023-01-29T08:26:37;-0.90;99.90
13686;DHT22;6915;48.296;8.874;2023-01-29T08:29:06;-0.80;99.90
13686;DHT22;6915;48.296;8.874;2023-01-29T08:31:35;-0.90;99.90
13686;DHT22;6915;48.296;8.874;2023-01-29T08:34:04;-0.80;99.90
13686;DHT22;6915;48.296;8.874;2023-01-29T08:54:39;-0.70;99.90
13686;DHT22;6915;48.296;8.874;2023-01-29T08:57:08;-0.70;99.90
13686;DHT22;6915;48.296;8.874;2023-01-29T08:59:36;-0.60;99.90
13686;DHT22;6915;48.296;8.874;2023-01-29T09:02:06;-0.50;99.90
13686;DHT22;6915;48.296;8.874;2023-01-29T09:04:34;-0.70;99.90
13686;DHT22;6915;48.296;8.874;2023-01-29T09:07:03;-0.60;99.90
13686;DHT22;6915;48.296;8.874;2023-01-29T09:09:31;-0.60;99.90
13686;DHT22;6915;48.296;8.874;2023-01-29T09:12:02;-0.60;99.90
13686;DHT22;6915;48.296;8.874;2023-01-29T09:14:31;-0.50;99.90
13686;DHT22;6915;48.296;8.874;2023-01-29T09:17:00;-0.60;99.90
13686;DHT22;6915;48.296;8.874;2023-01-29T09:19:28;-0.70;99.90
13686;DHT22;6915;48.296;8.874;2023-01-29T09:21:57;-0.80;99.90
13686;DHT22;6915;48.296;8.874;2023-01-29T09:24:32;-0.80;99.90
13686;DHT22;6915;48.296;8.874;2023-01-29T09:27:03;-0.70;99.90
13686;DHT22;6915;48.296;8.874;2023-01-29T09:29:33;-0.80;99.90
13686;DHT22;6915;48.296;8.874;2023-01-29T09:32:02;-0.90;99.90
13686;DHT22;6915;48.296;8.874;2023-01-29T09:34:33;-0.90;99.90
13686;DHT22;6915;48.296;8.874;2023-01-29T09:37:01;-0.90;99.90
13686;DHT22;6915;48.296;8.874;2023-01-29T09:39:32;-0.80;99.90
13686;DHT22;6915;48.296;8.874;2023-01-29T09:42:05;-0.80;99.90
13686;DHT22;6915;48.296;8.874;2023-01-29T09:44:48;-0.90;99.90
13686;DHT22;6915;48.296;8.874;2023-01-29T09:47:22;-0.80;99.90
13686;DHT22;6915;48.296;8.874;2023-01-29T09:49:54;-1.00;99.90
13686;DHT22;6915;48.296;8.874;2023-01-29T09:52:26;-0.90;99.90
13686;DHT22;6915;48.296;8.874;2023-01-29T09:55:02;-0.90;99.90
13686;DHT22;6915;48.296;8.874;2023-01-29T09:57:37;-0.80;99.90
13686;DHT22;6915;48.296;8.874;2023-01-29T10:00:12;-0.70;99.90
13686;DHT22;6915;48.296;8.874;2023-01-29T10:03:03;-0.60;99.90
13686;DHT22;6915;48.296;8.874;2023-01-29T10:05:44;-0.50;99.90
13686;DHT22;6915;48.296;8.874;2023-01-29T10:08:38;-0.40;99.90
13686;DHT22;6915;48.296;8.874;2023-01-29T10:19:11;0.10;99.90
13686;DHT22;6915;48.296;8.874;2023-01-29T10:22:20;0.20;99.90
13686;DHT22;6915;48.296;8.874;2023-01-29T13:21:22;1.40;99.90
13686;DHT22;6915;48.296;8.874;2023-01-29T13:23:54;1.40;99.90
13686;DHT22;6915;48.296;8.874;2023-01-29T13:26:24;1.40;99.90
13686;DHT22;6915;48.296;8.874;2023-01-29T13:28:54;1.50;99.90
13686;DHT22;6915;48.296;8.874;2023-01-29T13:31:35;1.40;99.90
13686;DHT22;6915;48.296;8.874;2023-01-29T13:34:13;1.50;99.90
13686;DHT22;6915;48.296;8.874;2023-01-29T13:36:45;1.50;99.90
13686;DHT22;6915;48.296;8.874;2023-01-29T13:39:21;1.40;99.90
13686;DHT22;6915;48.296;8.874;2023-01-29T13:41:52;1.40;99.90
13686;DHT22;6915;48.296;8.874;2023-01-29T13:44:23;1.40;99.90
13686;DHT22;6915;48.296;8.874;2023-01-29T13:46:54;1.40;99.90
13686;DHT22;6915;48.296;8.874;2023-01-29T13:49:32;1.40;99.90
13686;DHT22;6915;48.296;8.874;2023-01-29T13:52:22;1.40;99.90
13686;DHT22;6915;48.296;8.874;2023-01-29T13:54:53;1.50;99.90
13686;DHT22;6915;48.296;8.874;2023-01-29T13:57:46;1.50;99.90
13686;DHT22;6915;48.296;8.874;2023-01-29T14:03:52;1.50;99.90
13686;DHT22;6915;48.296;8.874;2023-01-29T14:06:41;1.50;99.90
13686;DHT22;6915;48.296;8.874;2023-01-29T14:12:38;1.30;99.90
13686;DHT22;6915;48.296;8.874;2023-01-29T14:15:26;1.20;99.90
13686;DHT22;6915;48.296;8.874;2023-01-29T14:18:01;1.10;99.90
13686;DHT22;6915;48.296;8.874;2023-01-29T14:20:34;1.10;99.90
13686;DHT22;6915;48.296;8.874;2023-01-29T14:23:06;1.20;99.90
13686;DHT22;6915;48.296;8.874;2023-01-29T14:25:39;1.30;99.90
13686;DHT22;6915;48.296;8.874;2023-01-29T14:28:18;1.20;99.90
13686;DHT22;6915;48.296;8.874;2023-01-29T14:30:49;1.20;99.90
13686;DHT22;6915;48.296;8.874;2023-01-29T14:33:25;1.30;99.90
13686;DHT22;6915;48.296;8.874;2023-01-29T14:35:56;1.20;99.90
13686;DHT22;6915;48.296;8.874;2023-01-29T14:38:28;1.20;99.90
13686;DHT22;6915;48.296;8.874;2023-01-29T14:41:11;1.20;99.90
13686;DHT22;6915;48.296;8.874;2023-01-29T14:43:43;1.20;99.90
13686;DHT22;6915;48.296;8.874;2023-01-29T14:46:42;1.10;99.90
13686;DHT22;6915;48.296;8.874;2023-01-29T14:49:11;1.00;99.90
13686;DHT22;6915;48.296;8.874;2023-01-29T14:52:02;1.10;99.90
13686;DHT22;6915;48.296;8.874;2023-01-29T14:54:32;1.00;99.90
13686;DHT22;6915;48.296;8.874;2023-01-29T14:57:07;1.00;99.90
13686;DHT22;6915;48.296;8.874;2023-01-29T14:59:46;0.90;99.90
13686;DHT22;6915;48.296;8.874;2023-01-29T15:02:21;1.00;99.90
13686;DHT22;6915;48.296;8.874;2023-01-29T15:04:54;0.90;99.90
13686;DHT22;6915;48.296;8.874;2023-01-29T15:07:28;1.00;99.90
13686;DHT22;6915;48.296;8.874;2023-01-29T15:10:02;0.90;99.90
13686;DHT22;6915;48.296;8.874;2023-01-29T15:12:35;0.90;99.90
13686;DHT22;6915;48.296;8.874;2023-01-29T15:15:17;0.80;99.90
13686;DHT22;6915;48.296;8.874;2023-01-29T15:17:53;0.90;99.90
13686;DHT22;6915;48.296;8.874;2023-01-29T15:20:30;0.80;99.90
13686;DHT22;6915;48.296;8.874;2023-01-29T15:23:01;0.80;99.90
13686;DHT22;6915;48.296;8.874;2023-01-29T15:25:33;0.80;99.90
13686;DHT22;6915;48.296;8.874;2023-01-29T15:28:03;0.70;99.90
13686;DHT22;6915;48.296;8.874;2023-01-29T15:30:38;0.70;99.90
13686;DHT22;6915;48.296;8.874;2023-01-29T15:33:10;0.60;99.90
13686;DHT22;6915;48.296;8.874;2023-01-29T15:35:41;0.70;99.90
13686;DHT22;6915;48.296;8.874;2023-01-29T15:38:17;0.70;99.90
13686;DHT22;6915;48.296;8.874;2023-01-29T15:40:53;0.60;99.90
13686;DHT22;6915;48.296;8.874;2023-01-29T15:43:24;0.50;99.90
13686;DHT22;6915;48.296;8.874;2023-01-29T15:45:56;0.50;99.90
13686;DHT22;6915;48.296;8.874;2023-01-29T15:48:29;0.50;99.90
13686;DHT22;6915;48.296;8.874;2023-01-29T15:51:04;0.50;99.90
13686;DHT22;6915;48.296;8.874;2023-01-29T15:53:39;0.20;99.90
13686;DHT22;6915;48.296;8.874;2023-01-29T15:56:10;0.20;99.90
13686;DHT22;6915;48.296;8.874;2023-01-29T15:58:40;0.10;99.90
13686;DHT22;6915;48.296;8.874;2023-01-29T16:01:14;0.00;99.90
13686;DHT22;6915;48.296;8.874;2023-01-29T16:03:43;0.10;99.90
13686;DHT22;6915;48.296;8.874;2023-01-29T16:06:12;-0.10;99.90
13686;DHT22;6915;48.296;8.874;2023-01-29T16:08:43;-0.10;99.90
13686;DHT22;6915;48.296;8.874;2023-01-29T16:11:14;-0.20;99.90
13686;DHT22;6915;48.296;8.874;2023-01-29T16:13:43;-0.20;99.90
13686;DHT22;6915;48.296;8.874;2023-01-29T16:16:25;-0.30;99.90
13686;DHT22;6915;48.296;8.874;2023-01-29T16:18:55;-0.30;99.90
13686;DHT22;6915;48.296;8.874;2023-01-29T16:21:26;-0.50;99.90
13686;DHT22;6915;48.296;8.874;2023-01-29T16:23:58;-0.60;99.90
13686;DHT22;6915;48.296;8.874;2023-01-29T16:26:33;-0.60;99.90
13686;DHT22;6915;48.296;8.874;2023-01-29T16:29:05;-0.70;99.90
13686;DHT22;6915;48.296;8.874;2023-01-29T16:31:36;-0.70;99.90
13686;DHT22;6915;48.296;8.874;2023-01-29T16:34:13;-0.80;99.90
13686;DHT22;6915;48.296;8.874;2023-01-29T16:36:46;-0.90;99.90
13686;DHT22;6915;48.296;8.874;2023-01-29T16:39:19;-1.10;99.90
13686;DHT22;6915;48.296;8.874;2023-01-29T16:44:56;-1.20;99.90
13686;DHT22;6915;48.296;8.874;2023-01-29T16:47:28;-1.20;99.90
13686;DHT22;6915;48.296;8.874;2023-01-29T16:49:58;-1.30;99.90
13686;DHT22;6915;48.296;8.874;2023-01-29T16:52:30;-1.30;99.90
13686;DHT22;6915;48.296;8.874;2023-01-29T16:54:59;-1.40;99.90
13686;DHT22;6915;48.296;8.874;2023-01-29T16:57:30;-1.50;99.90
13686;DHT22;6915;48.296;8.874;2023-01-29T17:00:02;-1.40;99.90
13686;DHT22;6915;48.296;8.874;2023-01-29T17:02:37;-1.60;99.90
13686;DHT22;6915;48.296;8.874;2023-01-29T17:05:13;-1.70;99.90
13686;DHT22;6915;48.296;8.874;2023-01-29T17:07:45;-1.80;99.90
13686;DHT22;6915;48.296;8.874;2023-01-29T17:10:18;-1.80;99.90
13686;DHT22;6915;48.296;8.874;2023-01-29T17:12:51;-1.90;99.90
13686;DHT22;6915;48.296;8.874;2023-01-29T17:15:33;-1.90;99.90
13686;DHT22;6915;48.296;8.874;2023-01-29T17:18:06;-1.90;99.90
13686;DHT22;6915;48.296;8.874;2023-01-29T17:20:42;-2.10;99.90
13686;DHT22;6915;48.296;8.874;2023-01-29T17:23:11;-2.10;99.90
13686;DHT22;6915;48.296;8.874;2023-01-29T17:25:40;-2.10;99.90
13686;DHT22;6915;48.296;8.874;2023-01-29T17:28:11;-2.30;99.90
13686;DHT22;6915;48.296;8.874;2023-01-29T17:30:41;-2.30;99.90
13686;DHT22;6915;48.296;8.874;2023-01-29T17:33:15;-2.20;99.90
13686;DHT22;6915;48.296;8.874;2023-01-29T17:35:44;-2.30;99.90
13686;DHT22;6915;48.296;8.874;2023-01-29T17:38:14;-2.40;99.90
13686;DHT22;6915;48.296;8.874;2023-01-29T17:40:44;-2.50;99.90
13686;DHT22;6915;48.296;8.874;2023-01-29T17:43:14;-2.60;99.90
13686;DHT22;6915;48.296;8.874;2023-01-29T17:45:43;-2.60;99.90
13686;DHT22;6915;48.296;8.874;2023-01-29T17:48:17;-2.60;99.90
13686;DHT22;6915;48.296;8.874;2023-01-29T17:50:47;-2.70;99.90
13686;DHT22;6915;48.296;8.874;2023-01-29T17:53:17;-2.60;99.90
13686;DHT22;6915;48.296;8.874;2023-01-29T17:55:47;-2.70;99.90
13686;DHT22;6915;48.296;8.874;2023-01-29T17:58:18;-2.80;99.90
13686;DHT22;6915;48.296;8.874;2023-01-29T18:00:48;-2.70;99.90
13686;DHT22;6915;48.296;8.874;2023-01-29T18:03:18;-2.90;99.90
13686;DHT22;6915;48.296;8.874;2023-01-29T18:05:48;-3.00;99.90
13686;DHT22;6915;48.296;8.874;2023-01-29T18:08:18;-3.00;99.90
13686;DHT22;6915;48.296;8.874;2023-01-29T18:10:48;-3.10;99.90
13686;DHT22;6915;48.296;8.874;2023-01-29T18:13:17;-3.10;99.90
13686;DHT22;6915;48.296;8.874;2023-01-29T18:15:46;-3.20;99.90
13686;DHT22;6915;48.296;8.874;2023-01-29T18:18:17;-3.30;99.90
13686;DHT22;6915;48.296;8.874;2023-01-29T18:20:46;-3.30;99.90
13686;DHT22;6915;48.296;8.874;2023-01-29T18:23:15;-3.40;99.90
13686;DHT22;6915;48.296;8.874;2023-01-29T18:25:44;-3.40;99.90
13686;DHT22;6915;48.296;8.874;2023-01-29T18:28:15;-3.50;99.90
13686;DHT22;6915;48.296;8.874;2023-01-29T18:30:44;-3.50;99.90
13686;DHT22;6915;48.296;8.874;2023-01-29T18:33:15;-3.60;99.90
13686;DHT22;6915;48.296;8.874;2023-01-29T18:35:45;-3.60;99.90
13686;DHT22;6915;48.296;8.874;2023-01-29T18:38:14;-3.50;99.90
13686;DHT22;6915;48.296;8.874;2023-01-29T18:40:43;-3.60;99.90
13686;DHT22;6915;48.296;8.874;2023-01-29T18:43:16;-3.50;99.90
13686;DHT22;6915;48.296;8.874;2023-01-29T18:45:46;-3.50;99.90
13686;DHT22;6915;48.296;8.874;2023-01-29T18:48:15;-3.50;99.90
13686;DHT22;6915;48.296;8.874;2023-01-29T18:50:45;-3.50;99.90
13686;DHT22;6915;48.296;8.874;2023-01-29T18:53:14;-3.40;99.90
13686;DHT22;6915;48.296;8.874;2023-01-29T18:55:42;-3.40;99.90
13686;DHT22;6915;48.296;8.874;2023-01-29T18:58:11;-3.40;99.90
13686;DHT22;6915;48.296;8.874;2023-01-29T19:11:12;-3.40;99.90
13686;DHT22;6915;48.296;8.874;2023-01-29T19:13:58;-3.40;99.90
13686;DHT22;6915;48.296;8.874;2023-01-29T19:16:41;-3.40;99.90
13686;DHT22;6915;48.296;8.874;2023-01-29T19:19:10;-3.50;99.90
13686;DHT22;6915;48.296;8.874;2023-01-29T19:21:42;-3.40;99.90
13686;DHT22;6915;48.296;8.874;2023-01-29T19:24:11;-3.40;99.90
13686;DHT22;6915;48.296;8.874;2023-01-29T19:26:44;-3.50;99.90
13686;DHT22;6915;48.296;8.874;2023-01-29T19:29:16;-3.30;99.90
13686;DHT22;6915;48.296;8.874;2023-01-29T19:31:46;-3.40;99.90
13686;DHT22;6915;48.296;8.874;2023-01-29T23:34:59;-5.80;99.90
13686;DHT22;6915;48.296;8.874;2023-01-29T23:37:28;-5.80;99.90
13686;DHT22;6915;48.296;8.874;2023-01-29T23:39:57;-5.90;99.90
13686;DHT22;6915;48.296;8.874;2023-01-29T23:42:26;-5.90;99.90
13686;DHT22;6915;48.296;8.874;2023-01-29T23:44:54;-5.90;99.90
13686;DHT22;6915;48.296;8.874;2023-01-29T23:47:23;-5.80;99.90
13686;DHT22;6915;48.296;8.874;2023-01-29T23:49:52;-5.90;99.90
13686;DHT22;6915;48.296;8.874;2023-01-29T23:52:22;-5.90;99.90
13686;DHT22;6915;48.296;8.874;2023-01-29T23:54:51;-5.90;99.90
13686;DHT22;6915;48.296;8.874;2023-01-29T23:57:19;-5.90;99.90
13686;DHT22;6915;48.296;8.874;2023-01-29T23:59:48;-5.80;99.90
